Atlantic Mine, Michigan
Current Conditions -  °F | °C
As of 6:53 PM on Saturday 20 Dec 2014 (Local Time) from KCMX Reporting Station
Overcast Overcast  
Wind Chill: 27°   Ceiling: 2500
Heat Index: 27°   Visibility: 10mi
Dew Point: 23°   Wind: 3mph
Humidity: 85%   Direction: 170°S
Pressure: 30.14"   Gusts: NA
Location:  47.1°N, 88.63°W
Report Text: KCMX 202353Z AUTO 17003KT 10SM OVC025 M03/M05 A3014 RMK AO2 SLP226 T10281050 11028 21044 50000
Loading
Personal Weather Stations






























Interactive Weather Map New forecast layout! Learn more

10-Day Weather Forecast

Advertisements
Track Severe Weather on mobile